createdAt,value
2018-09-27T00:00:39.107Z,9.13
2018-09-27T00:03:07.967Z,8.77
2018-09-27T00:05:37.429Z,8.20
2018-09-27T00:08:06.880Z,8.67
2018-09-27T00:10:35.376Z,8.80
2018-09-27T00:13:03.883Z,9.33
2018-09-27T00:15:32.388Z,9.13
2018-09-27T00:18:00.998Z,8.67
2018-09-27T00:20:29.475Z,8.70
2018-09-27T00:22:58.140Z,9.17
2018-09-27T00:25:26.704Z,9.50
2018-09-27T00:27:55.266Z,9.70
2018-09-27T00:30:23.964Z,9.60
2018-09-27T00:32:52.631Z,8.80
2018-09-27T00:35:21.150Z,8.43
2018-09-27T00:37:56.061Z,9.50
2018-09-27T00:40:24.608Z,9.67
2018-09-27T00:42:54.257Z,8.43
2018-09-27T00:45:22.897Z,9.70
2018-09-27T00:47:51.445Z,8.93
2018-09-27T00:50:19.946Z,9.50
2018-09-27T00:52:48.511Z,9.77
2018-09-27T00:55:17.052Z,9.50
2018-09-27T00:57:45.561Z,9.90
2018-09-27T01:00:14.075Z,9.17
2018-09-27T01:02:42.632Z,9.00
2018-09-27T01:05:11.157Z,9.80
2018-09-27T01:07:39.635Z,9.03
2018-09-27T01:10:08.157Z,9.30
2018-09-27T01:12:36.657Z,8.90
2018-09-27T01:15:05.318Z,9.10
2018-09-27T01:17:33.877Z,9.50
2018-09-27T01:20:02.417Z,9.23
2018-09-27T01:22:30.926Z,9.33
2018-09-27T01:24:59.476Z,9.40
2018-09-27T01:27:27.984Z,9.43
2018-09-27T01:29:56.542Z,9.10
2018-09-27T01:32:24.946Z,8.87
2018-09-27T01:34:53.451Z,8.83
2018-09-27T01:37:21.980Z,9.57
2018-09-27T01:39:50.462Z,8.57
2018-09-27T01:42:18.998Z,8.53
2018-09-27T01:44:47.505Z,8.70
2018-09-27T01:47:16.030Z,8.80
2018-09-27T01:49:44.526Z,8.43
2018-09-27T01:52:13.008Z,8.63
2018-09-27T01:54:41.543Z,8.70
2018-09-27T01:57:10.176Z,9.50
2018-09-27T01:59:38.696Z,9.43
2018-09-27T02:02:07.344Z,9.70
2018-09-27T02:04:36.705Z,9.33
2018-09-27T02:07:05.483Z,9.53
2018-09-27T02:09:33.955Z,9.60
2018-09-27T02:12:02.483Z,10.10
2018-09-27T02:14:31.146Z,9.80
2018-09-27T02:16:59.638Z,10.27
2018-09-27T02:19:28.163Z,9.90
2018-09-27T02:21:56.668Z,8.90
2018-09-27T02:24:25.160Z,10.17
2018-09-27T02:26:53.593Z,9.63
2018-09-27T02:29:22.070Z,9.67
2018-09-27T02:31:50.610Z,10.67
2018-09-27T02:34:19.089Z,9.80
2018-09-27T02:36:47.616Z,10.63
2018-09-27T02:39:16.368Z,10.10
2018-09-27T02:41:45.092Z,10.60
2018-09-27T02:44:13.561Z,10.57
2018-09-27T02:46:42.013Z,9.40
2018-09-27T02:49:12.248Z,9.90
2018-09-27T02:51:40.761Z,10.13
2018-09-27T02:54:09.333Z,10.40
2018-09-27T02:56:37.809Z,10.10
2018-09-27T02:59:06.275Z,10.27
2018-09-27T03:01:34.815Z,9.23
2018-09-27T03:04:03.300Z,10.63
2018-09-27T03:06:31.793Z,9.60
2018-09-27T03:09:00.307Z,9.80
2018-09-27T03:11:28.910Z,9.57
2018-09-27T03:13:57.455Z,9.27
2018-09-27T03:16:25.978Z,9.40
2018-09-27T03:18:54.460Z,9.27
2018-09-27T03:21:23.079Z,9.70
2018-09-27T03:23:51.714Z,9.17
2018-09-27T03:26:20.201Z,10.33
2018-09-27T03:28:48.760Z,10.37
2018-09-27T03:31:17.347Z,10.23
2018-09-27T03:33:46.483Z,11.67
2018-09-27T03:36:15.087Z,11.27
2018-09-27T03:38:43.654Z,10.30
2018-09-27T03:41:12.188Z,10.83
2018-09-27T03:43:40.745Z,11.40
2018-09-27T03:46:09.186Z,11.67
2018-09-27T03:48:37.703Z,11.10
2018-09-27T03:51:06.429Z,11.70
2018-09-27T03:53:34.996Z,12.63
2018-09-27T03:56:03.621Z,12.33
2018-09-27T03:58:32.105Z,11.13
2018-09-27T04:01:00.685Z,12.00
2018-09-27T04:03:29.366Z,11.63
2018-09-27T04:05:58.093Z,11.77
2018-09-27T04:08:26.590Z,11.93
2018-09-27T04:10:55.081Z,11.87
2018-09-27T04:13:23.569Z,11.00
2018-09-27T04:15:52.108Z,12.37
2018-09-27T04:18:20.552Z,11.17
2018-09-27T04:20:52.171Z,11.13
2018-09-27T04:23:22.260Z,11.97
2018-09-27T04:25:51.771Z,11.30
2018-09-27T04:28:20.943Z,11.77
2018-09-27T04:30:49.549Z,12.27
2018-09-27T04:33:18.101Z,12.40
2018-09-27T04:35:46.652Z,12.37
2018-09-27T04:38:15.159Z,12.20
2018-09-27T04:40:43.688Z,12.47
2018-09-27T04:43:12.186Z,12.93
2018-09-27T04:45:40.825Z,13.43
2018-09-27T04:48:09.454Z,12.87
2018-09-27T04:50:38.027Z,12.90
2018-09-27T04:53:06.746Z,13.17
2018-09-27T04:55:35.348Z,13.63
2018-09-27T04:58:03.955Z,13.60
2018-09-27T05:00:32.520Z,13.53
2018-09-27T05:03:00.983Z,13.37
2018-09-27T05:05:29.459Z,13.83
2018-09-27T05:07:58.021Z,14.63
2018-09-27T05:10:26.485Z,12.87
2018-09-27T05:12:55.014Z,12.60
2018-09-27T05:15:23.588Z,12.70
2018-09-27T05:17:52.056Z,12.00
2018-09-27T05:20:20.750Z,11.23
2018-09-27T05:22:49.240Z,10.63
2018-09-27T05:25:17.868Z,10.77
2018-09-27T05:27:46.685Z,10.57
2018-09-27T05:30:15.669Z,9.97
2018-09-27T05:32:44.336Z,9.63
2018-09-27T05:35:12.940Z,9.87
2018-09-27T05:37:41.859Z,10.03
2018-09-27T05:40:10.312Z,9.23
2018-09-27T05:42:38.818Z,10.37
2018-09-27T05:45:07.469Z,9.53
2018-09-27T05:47:35.942Z,9.80
2018-09-27T05:50:05.084Z,9.33
2018-09-27T05:52:33.477Z,8.97
2018-09-27T05:55:01.952Z,7.33
2018-09-27T05:57:30.451Z,7.83
2018-09-27T05:59:58.891Z,7.73
2018-09-27T06:02:27.394Z,7.47
2018-09-27T06:04:56.098Z,8.07
2018-09-27T06:07:24.821Z,8.40
2018-09-27T06:09:53.398Z,8.33
2018-09-27T06:12:22.064Z,8.50
2018-09-27T06:14:51.353Z,8.10
2018-09-27T06:17:20.068Z,8.30
2018-09-27T06:19:48.798Z,7.87
2018-09-27T06:22:17.313Z,7.80
2018-09-27T06:24:45.794Z,7.43
2018-09-27T06:27:14.303Z,7.27
2018-09-27T06:29:42.782Z,6.63
2018-09-27T06:32:11.306Z,6.57
2018-09-27T06:34:39.851Z,6.33
2018-09-27T06:37:08.412Z,6.73
2018-09-27T06:39:37.021Z,6.60
2018-09-27T06:42:05.634Z,7.00
2018-09-27T06:44:34.258Z,6.40
2018-09-27T06:47:02.812Z,7.07
2018-09-27T06:49:31.501Z,7.10
2018-09-27T06:52:00.072Z,6.47
2018-09-27T06:54:28.650Z,6.67
2018-09-27T06:56:57.276Z,6.67
2018-09-27T06:59:25.993Z,6.93
2018-09-27T07:01:54.540Z,6.80
2018-09-27T07:04:23.182Z,6.53
2018-09-27T07:06:51.756Z,6.67
2018-09-27T07:09:20.511Z,7.10
2018-09-27T07:11:49.095Z,6.93
2018-09-27T07:14:17.632Z,8.00
2018-09-27T07:16:46.153Z,7.37
2018-09-27T07:19:14.744Z,7.83
2018-09-27T07:21:43.306Z,6.93
2018-09-27T07:24:11.831Z,7.13
2018-09-27T07:26:40.472Z,7.07
2018-09-27T07:29:08.832Z,7.57
2018-09-27T07:31:37.395Z,7.07
2018-09-27T07:34:05.940Z,7.10
2018-09-27T07:36:34.664Z,6.43
2018-09-27T07:39:03.420Z,7.37
2018-09-27T07:41:32.104Z,6.80
2018-09-27T07:44:00.753Z,6.73
2018-09-27T07:46:29.301Z,6.53
2018-09-27T07:48:57.845Z,6.70
2018-09-27T07:51:26.681Z,7.40
2018-09-27T07:53:55.340Z,6.77
2018-09-27T07:56:24.078Z,7.10
2018-09-27T07:58:52.852Z,5.57
2018-09-27T08:01:21.751Z,6.90
2018-09-27T08:03:50.706Z,6.53
2018-09-27T08:06:19.328Z,6.50
2018-09-27T08:08:47.944Z,6.87
2018-09-27T08:11:16.617Z,6.73
2018-09-27T08:13:45.037Z,6.20
2018-09-27T08:16:13.792Z,6.30
2018-09-27T08:18:42.495Z,6.57
2018-09-27T08:21:11.183Z,5.97
2018-09-27T08:23:39.810Z,6.63
2018-09-27T08:26:08.371Z,6.80
2018-09-27T08:28:37.245Z,6.20
2018-09-27T08:31:05.939Z,5.67
2018-09-27T08:33:34.501Z,5.80
2018-09-27T08:36:03.229Z,6.17
2018-09-27T08:38:31.876Z,6.50
2018-09-27T08:41:00.652Z,6.00
2018-09-27T08:43:29.266Z,5.90
2018-09-27T08:45:57.964Z,6.80
2018-09-27T08:48:26.614Z,5.87
2018-09-27T08:50:55.177Z,5.07
2018-09-27T08:53:23.988Z,6.13
2018-09-27T08:55:52.684Z,5.97
2018-09-27T08:58:21.397Z,6.23
2018-09-27T09:00:50.018Z,6.30
2018-09-27T09:03:18.652Z,6.07
2018-09-27T09:05:47.327Z,6.70
2018-09-27T09:08:15.964Z,7.00
2018-09-27T09:10:44.557Z,6.27
2018-09-27T09:13:13.022Z,6.93
2018-09-27T09:15:41.730Z,6.93
2018-09-27T09:18:10.249Z,6.90
2018-09-27T09:20:38.793Z,7.00
2018-09-27T09:23:07.485Z,7.13
2018-09-27T09:25:36.152Z,6.63
2018-09-27T09:28:04.698Z,7.73
2018-09-27T09:30:33.211Z,7.27
2018-09-27T09:33:01.900Z,7.07
2018-09-27T09:35:30.539Z,7.90
2018-09-27T09:37:59.222Z,7.13
2018-09-27T09:40:27.791Z,7.27
2018-09-27T09:42:56.642Z,6.70
2018-09-27T09:45:25.484Z,6.63
2018-09-27T09:47:54.299Z,7.33
2018-09-27T09:50:23.059Z,6.80
2018-09-27T09:52:51.942Z,7.10
2018-09-27T09:55:20.509Z,6.23
2018-09-27T09:57:49.132Z,6.83
2018-09-27T10:00:17.632Z,6.50
2018-09-27T10:02:46.160Z,6.10
2018-09-27T10:05:14.694Z,5.77
2018-09-27T10:07:43.195Z,4.40
2018-09-27T10:10:11.689Z,4.60
2018-09-27T10:12:40.183Z,5.10
2018-09-27T10:15:08.723Z,5.30
2018-09-27T10:17:37.389Z,4.53
2018-09-27T10:20:06.056Z,4.53
2018-09-27T10:22:34.609Z,4.40
2018-09-27T10:25:03.186Z,5.03
2018-09-27T10:27:31.883Z,4.90
2018-09-27T10:30:00.440Z,4.77
2018-09-27T10:32:29.018Z,4.50
2018-09-27T10:34:57.574Z,4.40
2018-09-27T10:37:26.120Z,4.33
2018-09-27T10:39:54.702Z,4.50
2018-09-27T10:42:23.250Z,4.10
2018-09-27T10:44:51.800Z,4.23
2018-09-27T10:47:20.422Z,4.37
2018-09-27T10:49:48.983Z,4.43
2018-09-27T10:52:17.664Z,4.17
2018-09-27T10:54:46.279Z,4.27
2018-09-27T10:57:15.005Z,4.27
2018-09-27T10:59:43.499Z,4.53
2018-09-27T11:02:12.093Z,4.37
2018-09-27T11:04:40.740Z,4.37
2018-09-27T11:07:09.305Z,3.97
2018-09-27T11:09:38.078Z,4.17
2018-09-27T11:12:07.725Z,4.10
2018-09-27T11:14:36.269Z,4.13
2018-09-27T11:17:05.475Z,4.50
2018-09-27T11:19:33.977Z,4.13
2018-09-27T11:22:02.613Z,4.23
2018-09-27T11:24:31.089Z,4.40
2018-09-27T11:26:59.736Z,4.47
2018-09-27T11:29:33.681Z,4.27
2018-09-27T11:32:07.419Z,3.87
2018-09-27T11:34:35.946Z,3.90
2018-09-27T11:37:04.530Z,4.20
2018-09-27T11:39:33.032Z,3.50
2018-09-27T11:42:01.658Z,3.90
2018-09-27T11:44:30.346Z,3.90
2018-09-27T11:46:58.908Z,4.20
2018-09-27T11:49:27.574Z,4.00
2018-09-27T11:51:56.113Z,3.80
2018-09-27T11:54:24.800Z,4.47
2018-09-27T11:56:53.286Z,4.40
2018-09-27T11:59:21.786Z,4.53
2018-09-27T12:01:50.347Z,4.47
2018-09-27T12:04:19.057Z,4.30
2018-09-27T12:06:47.837Z,4.27
2018-09-27T12:09:16.442Z,4.53
2018-09-27T12:11:45.537Z,4.50
2018-09-27T12:14:14.665Z,5.07
2018-09-27T12:16:43.260Z,5.03
2018-09-27T12:19:11.750Z,5.40
2018-09-27T12:21:40.236Z,4.70
2018-09-27T12:24:08.817Z,5.20
2018-09-27T12:26:37.490Z,5.10
2018-09-27T12:29:06.147Z,5.87
2018-09-27T12:31:34.712Z,6.13
2018-09-27T12:34:03.441Z,5.53
2018-09-27T12:36:32.168Z,5.60
2018-09-27T12:39:00.895Z,5.67
2018-09-27T12:41:29.405Z,6.00
2018-09-27T12:43:57.926Z,6.43
2018-09-27T12:46:26.645Z,5.90
2018-09-27T12:48:55.233Z,6.07
2018-09-27T12:51:23.840Z,5.73
2018-09-27T12:53:52.425Z,6.20
2018-09-27T12:56:21.150Z,6.10
2018-09-27T12:58:49.752Z,6.20
2018-09-27T13:01:18.448Z,5.67
2018-09-27T13:03:47.096Z,5.80
2018-09-27T13:06:15.875Z,6.60
2018-09-27T13:08:44.822Z,5.90
2018-09-27T13:11:13.710Z,6.90
2018-09-27T13:13:42.330Z,6.23
2018-09-27T13:16:10.940Z,5.93
2018-09-27T13:18:39.572Z,6.90
2018-09-27T13:21:08.145Z,6.37
2018-09-27T13:23:36.660Z,6.00
2018-09-27T13:26:05.248Z,5.53
2018-09-27T13:28:33.954Z,5.87
2018-09-27T13:31:02.469Z,6.37
2018-09-27T13:33:31.018Z,6.37
2018-09-27T13:35:59.563Z,6.40
2018-09-27T13:38:28.119Z,6.70
2018-09-27T13:40:56.921Z,7.33
2018-09-27T13:43:25.457Z,6.80
2018-09-27T13:45:54.175Z,6.47
2018-09-27T13:48:22.927Z,7.13
2018-09-27T13:50:51.620Z,7.00
2018-09-27T13:53:20.221Z,7.30
2018-09-27T13:55:49.272Z,6.63
2018-09-27T13:58:17.920Z,7.57
2018-09-27T14:00:46.612Z,7.13
2018-09-27T14:03:15.225Z,7.20
2018-09-27T14:05:43.774Z,6.20
2018-09-27T14:08:12.531Z,6.20
2018-09-27T14:10:41.085Z,7.30
2018-09-27T14:13:09.721Z,6.37
2018-09-27T14:15:38.487Z,6.97
2018-09-27T14:18:07.492Z,7.33
2018-09-27T14:20:36.032Z,6.63
2018-09-27T14:23:04.653Z,7.37
2018-09-27T14:25:33.399Z,7.03
2018-09-27T14:28:02.025Z,7.37
2018-09-27T14:30:30.743Z,6.33
2018-09-27T14:32:59.565Z,6.13
2018-09-27T14:35:28.420Z,6.53
2018-09-27T14:37:57.189Z,7.27
2018-09-27T14:40:25.936Z,7.47
2018-09-27T14:42:54.475Z,8.70
2018-09-27T14:45:23.151Z,7.27
2018-09-27T14:47:51.984Z,7.10
2018-09-27T14:50:20.672Z,8.17
2018-09-27T14:52:49.402Z,6.87
2018-09-27T14:55:17.954Z,7.23
2018-09-27T14:57:46.515Z,6.77
2018-09-27T15:00:15.306Z,7.40
2018-09-27T15:02:44.170Z,7.20
2018-09-27T15:05:12.903Z,7.00
2018-09-27T15:07:41.631Z,6.37
2018-09-27T15:10:10.281Z,6.43
2018-09-27T15:12:39.068Z,5.83
2018-09-27T15:15:08.051Z,5.77
2018-09-27T15:17:37.329Z,6.10
2018-09-27T15:20:06.282Z,6.63
2018-09-27T15:22:35.257Z,6.80
2018-09-27T15:25:04.185Z,6.83
2018-09-27T15:27:32.960Z,6.97
2018-09-27T15:30:01.962Z,7.57
2018-09-27T15:32:30.839Z,6.87
2018-09-27T15:34:59.449Z,6.43
2018-09-27T15:37:28.248Z,6.67
2018-09-27T15:39:57.084Z,7.17
2018-09-27T15:42:25.789Z,7.43
2018-09-27T15:44:54.401Z,8.03
2018-09-27T15:47:23.214Z,8.13
2018-09-27T15:49:51.969Z,7.60
2018-09-27T15:52:20.647Z,8.00
2018-09-27T15:54:49.358Z,9.10
2018-09-27T15:57:18.333Z,9.00
2018-09-27T15:59:47.181Z,8.13
2018-09-27T16:02:16.187Z,8.07
2018-09-27T16:04:45.566Z,8.33
2018-09-27T16:07:14.740Z,8.67
2018-09-27T16:09:43.507Z,9.37
2018-09-27T16:12:12.460Z,9.93
2018-09-27T16:14:42.050Z,10.00
2018-09-27T16:17:10.741Z,10.40
2018-09-27T16:19:39.390Z,9.10
2018-09-27T16:22:08.193Z,9.23
2018-09-27T16:24:36.942Z,9.37
2018-09-27T16:27:05.836Z,9.30
2018-09-27T16:29:34.604Z,8.50
2018-09-27T16:32:03.188Z,8.63
2018-09-27T16:34:31.683Z,8.97
2018-09-27T16:37:00.489Z,7.97
2018-09-27T16:39:29.489Z,8.00
2018-09-27T16:41:58.234Z,8.53
2018-09-27T16:44:26.851Z,8.27
2018-09-27T16:46:56.594Z,6.97
2018-09-27T16:49:25.220Z,7.70
2018-09-27T16:51:54.520Z,6.93
2018-09-27T16:54:23.441Z,7.33
2018-09-27T16:56:52.144Z,7.90
2018-09-27T16:59:20.874Z,7.20
2018-09-27T17:01:49.710Z,7.63
2018-09-27T17:04:18.450Z,7.30
2018-09-27T17:06:47.495Z,7.10
2018-09-27T17:09:16.274Z,7.00
2018-09-27T17:11:44.829Z,9.33
2018-09-27T17:14:13.484Z,8.10
2018-09-27T17:16:42.095Z,8.27
2018-09-27T17:19:10.665Z,7.40
2018-09-27T17:21:39.411Z,7.00
2018-09-27T17:24:08.248Z,6.30
2018-09-27T17:26:36.894Z,7.33
2018-09-27T17:29:05.563Z,7.40
2018-09-27T17:31:34.208Z,7.13
2018-09-27T17:34:02.840Z,7.00
2018-09-27T17:36:31.688Z,7.63
2018-09-27T17:39:00.395Z,8.20
2018-09-27T17:41:29.308Z,8.83
2018-09-27T17:43:58.049Z,8.00
2018-09-27T17:46:26.749Z,7.80
2018-09-27T17:48:55.477Z,8.33
2018-09-27T17:51:24.304Z,7.20
2018-09-27T17:53:53.123Z,8.30
2018-09-27T17:56:21.838Z,8.93
2018-09-27T17:58:50.605Z,11.23
2018-09-27T18:01:19.224Z,9.67
2018-09-27T18:03:47.969Z,10.37
2018-09-27T18:06:16.671Z,11.27
2018-09-27T18:08:45.850Z,10.80
2018-09-27T18:11:14.637Z,11.53
2018-09-27T18:13:43.502Z,9.80
2018-09-27T18:16:12.688Z,10.37
2018-09-27T18:18:41.683Z,10.83
2018-09-27T18:21:10.463Z,9.37
2018-09-27T18:23:39.343Z,11.03
2018-09-27T18:26:08.216Z,10.60
2018-09-27T18:28:37.330Z,10.23
2018-09-27T18:31:06.277Z,10.43
2018-09-27T18:33:35.295Z,10.93
2018-09-27T18:36:04.234Z,10.47
2018-09-27T18:38:33.258Z,11.13
2018-09-27T18:41:02.268Z,11.83
2018-09-27T18:43:31.302Z,12.00
2018-09-27T18:46:00.586Z,10.83
2018-09-27T18:48:29.697Z,11.70
2018-09-27T18:50:58.954Z,11.00
2018-09-27T18:53:28.340Z,10.90
2018-09-27T18:55:57.181Z,11.43
2018-09-27T18:58:26.140Z,13.23
2018-09-27T19:00:55.181Z,12.77
2018-09-27T19:03:24.411Z,13.37
2018-09-27T19:05:53.767Z,13.90
2018-09-27T19:08:22.959Z,14.17
2018-09-27T19:10:52.715Z,13.90
2018-09-27T19:13:21.802Z,13.10
2018-09-27T19:15:50.693Z,13.73
2018-09-27T19:18:19.580Z,13.30
2018-09-27T19:20:48.701Z,14.10
2018-09-27T19:23:17.794Z,14.00
2018-09-27T19:25:46.758Z,14.13
2018-09-27T19:28:15.817Z,13.03
2018-09-27T19:30:45.575Z,14.40
2018-09-27T19:33:14.452Z,14.07
2018-09-27T19:35:43.207Z,12.43
2018-09-27T19:38:11.999Z,11.50
2018-09-27T19:40:41.167Z,12.10
2018-09-27T19:43:10.011Z,11.17
2018-09-27T19:45:39.077Z,13.10
2018-09-27T19:48:07.690Z,12.27
2018-09-27T19:50:36.537Z,11.47
2018-09-27T19:53:05.359Z,12.27
2018-09-27T19:55:34.218Z,11.90
2018-09-27T19:58:03.075Z,13.47
2018-09-27T20:00:32.062Z,14.40
2018-09-27T20:03:00.755Z,12.40
2018-09-27T20:05:30.756Z,11.63
2018-09-27T20:08:00.081Z,12.17
2018-09-27T20:10:29.046Z,12.23
2018-09-27T20:12:58.046Z,12.83
2018-09-27T20:18:07.212Z,13.87
2018-09-27T20:20:35.945Z,13.03
2018-09-27T20:23:04.609Z,13.33
2018-09-27T20:25:33.592Z,12.93
2018-09-27T20:28:02.330Z,13.13
2018-09-27T20:30:30.913Z,12.97
2018-09-27T20:32:59.613Z,10.40
2018-09-27T20:35:28.364Z,11.17
2018-09-27T20:37:57.178Z,11.70
2018-09-27T20:40:25.936Z,11.93
2018-09-27T20:42:54.696Z,10.77
2018-09-27T20:45:23.915Z,11.07
2018-09-27T20:47:52.483Z,11.80
2018-09-27T20:50:21.168Z,10.77
2018-09-27T20:52:50.268Z,11.93
2018-09-27T20:55:18.971Z,11.60
2018-09-27T20:57:47.565Z,11.67
2018-09-27T21:00:18.067Z,10.60
2018-09-27T21:02:47.255Z,11.10
2018-09-27T21:05:20.376Z,11.60
2018-09-27T21:07:49.222Z,10.87
2018-09-27T21:10:18.722Z,10.40
2018-09-27T21:12:47.372Z,10.97
2018-09-27T21:15:18.253Z,10.53
2018-09-27T21:17:47.102Z,11.20
2018-09-27T21:20:16.764Z,11.93
2018-09-27T21:22:45.633Z,10.43
2018-09-27T21:25:14.489Z,10.90
2018-09-27T21:27:43.611Z,11.37
2018-09-27T21:30:13.016Z,11.07
2018-09-27T21:32:42.224Z,11.57
2018-09-27T21:35:11.055Z,11.47
2018-09-27T21:37:42.319Z,12.17
2018-09-27T21:40:11.289Z,11.40
2018-09-27T21:42:40.145Z,11.07
2018-09-27T21:45:08.968Z,10.97
2018-09-27T21:47:37.984Z,10.50
2018-09-27T21:50:06.915Z,10.63
2018-09-27T21:52:35.613Z,10.67
2018-09-27T21:55:06.030Z,10.83
2018-09-27T21:57:35.245Z,11.00
2018-09-27T22:00:04.821Z,10.80
2018-09-27T22:02:33.440Z,10.53
2018-09-27T22:05:02.790Z,10.03
2018-09-27T22:07:31.653Z,10.60
2018-09-27T22:10:01.373Z,10.87
2018-09-27T22:12:29.977Z,11.13
2018-09-27T22:14:58.698Z,10.80
2018-09-27T22:17:27.404Z,10.17
2018-09-27T22:19:56.022Z,11.00
2018-09-27T22:22:24.637Z,9.93
2018-09-27T22:24:53.184Z,11.57
2018-09-27T22:27:21.883Z,11.00
2018-09-27T22:29:50.402Z,10.57
2018-09-27T22:32:19.010Z,10.63
2018-09-27T22:34:47.553Z,10.37
2018-09-27T22:37:16.184Z,11.40
2018-09-27T22:39:44.818Z,10.93
2018-09-27T22:42:13.446Z,10.87
2018-09-27T22:44:42.244Z,9.97
2018-09-27T22:47:10.863Z,10.73
2018-09-27T22:49:39.371Z,10.67
2018-09-27T22:52:07.866Z,10.43
2018-09-27T22:54:36.474Z,11.20
2018-09-27T22:57:05.159Z,10.20
2018-09-27T22:59:33.668Z,10.97
2018-09-27T23:02:02.232Z,10.97
2018-09-27T23:04:30.792Z,11.77
2018-09-27T23:06:59.318Z,10.27
2018-09-27T23:09:27.903Z,10.53
2018-09-27T23:11:56.525Z,10.10
2018-09-27T23:14:25.465Z,11.17
2018-09-27T23:16:53.956Z,11.50
2018-09-27T23:19:22.573Z,11.20
2018-09-27T23:21:51.161Z,11.37
2018-09-27T23:24:19.749Z,12.30
2018-09-27T23:26:48.346Z,13.73
2018-09-27T23:29:16.858Z,13.53
2018-09-27T23:31:45.395Z,13.33
2018-09-27T23:34:13.954Z,13.63
2018-09-27T23:36:42.558Z,14.00
2018-09-27T23:39:11.507Z,13.13
2018-09-27T23:41:40.257Z,12.60
2018-09-27T23:44:09.383Z,11.73
2018-09-27T23:46:37.950Z,12.47
2018-09-27T23:49:06.491Z,11.83
2018-09-27T23:51:34.978Z,12.40
2018-09-27T23:54:03.465Z,11.47
2018-09-27T23:56:31.928Z,11.63
2018-09-27T23:59:00.457Z,13.13
